Time;durP1;ratioP1;P1;durP2;ratioP2;P2;SDS_P1;SDS_P2;PMS_P1;PMS_P2;Temp;Humidity;BMP_temperature;BMP_pressure;BME280_temperature;BME280_humidity;BME280_pressure;Samples;Min_cycle;Max_cycle;Signal;HPM_P1;HPM_P2
2020/12/08 00:02:14;;;;;;;17.53;11.40;;;6.30;99.90;;;;;;4964653;28;20187;-79
2020/12/08 00:04:41;;;;;;;18.85;10.80;;;6.20;99.90;;;;;;4965258;28;20199;-80
2020/12/08 00:07:07;;;;;;;16.33;11.35;;;6.30;99.90;;;;;;4981847;28;20235;-80
2020/12/08 00:09:33;;;;;;;17.58;11.10;;;6.20;99.90;;;;;;4980143;28;20186;-80
2020/12/08 00:12:02;;;;;;;24.03;10.43;;;6.30;99.90;;;;;;4979981;28;20192;-81
2020/12/08 00:14:27;;;;;;;22.00;12.73;;;6.30;99.90;;;;;;4980736;28;20178;-81
2020/12/08 00:16:53;;;;;;;24.40;14.07;;;6.40;99.90;;;;;;4979745;28;20179;-81
2020/12/08 00:19:19;;;;;;;19.30;11.13;;;6.50;99.90;;;;;;4981531;28;20179;-80
2020/12/08 00:21:46;;;;;;;18.00;10.70;;;6.70;99.90;;;;;;4980496;28;20189;-80
2020/12/08 00:24:12;;;;;;;20.27;12.82;;;6.60;99.90;;;;;;4981070;28;20171;-80
2020/12/08 00:26:41;;;;;;;18.25;13.70;;;6.50;99.90;;;;;;4985113;28;20242;-81
2020/12/08 00:29:09;;;;;;;17.60;12.18;;;6.50;99.90;;;;;;4981939;28;20188;-80
2020/12/08 00:31:35;;;;;;;18.88;12.18;;;6.40;99.90;;;;;;4983516;28;20207;-81
2020/12/08 00:34:01;;;;;;;22.45;13.15;;;6.30;99.90;;;;;;4980316;28;20659;-80
2020/12/08 00:36:29;;;;;;;25.00;13.77;;;6.30;99.90;;;;;;4981735;28;20187;-80
2020/12/08 00:38:56;;;;;;;23.83;14.20;;;6.30;99.90;;;;;;4981046;28;20180;-81
2020/12/08 00:41:23;;;;;;;22.38;12.52;;;6.20;99.90;;;;;;4964928;28;20191;-81
2020/12/08 00:43:49;;;;;;;23.80;13.82;;;6.20;99.90;;;;;;4981339;28;20186;-81
2020/12/08 00:46:16;;;;;;;21.30;10.70;;;6.30;99.90;;;;;;4979643;28;20222;-80
2020/12/08 00:48:43;;;;;;;24.80;14.00;;;6.40;99.90;;;;;;4963099;28;20691;-80
2020/12/08 00:51:09;;;;;;;26.65;13.52;;;6.50;99.90;;;;;;4980946;28;20765;-81
2020/12/08 00:53:35;;;;;;;23.90;14.00;;;6.60;99.90;;;;;;4980509;28;20168;-81
2020/12/08 00:56:01;;;;;;;29.53;14.47;;;6.80;99.90;;;;;;4978231;28;20266;-79
2020/12/08 00:58:27;;;;;;;23.15;13.85;;;6.80;99.90;;;;;;4984694;28;20462;-80
2020/12/08 01:00:53;;;;;;;22.73;13.37;;;6.60;99.90;;;;;;4986838;28;20179;-79
2020/12/08 01:03:20;;;;;;;27.63;14.77;;;6.60;99.90;;;;;;4985924;28;20180;-80
2020/12/08 01:05:45;;;;;;;24.67;13.82;;;6.40;99.90;;;;;;4986429;28;20191;-79
2020/12/08 01:08:11;;;;;;;27.50;14.70;;;6.30;99.90;;;;;;4985694;28;20194;-79
2020/12/08 01:10:37;;;;;;;30.17;14.17;;;6.20;99.90;;;;;;4968817;28;20532;-80
2020/12/08 01:13:03;;;;;;;22.87;12.80;;;6.10;99.90;;;;;;4969742;28;20531;-80
2020/12/08 01:15:29;;;;;;;27.50;14.20;;;6.10;99.90;;;;;;4985241;28;20455;-80
2020/12/08 01:17:54;;;;;;;22.90;12.80;;;6.10;99.90;;;;;;4968897;28;20464;-80
2020/12/08 01:20:20;;;;;;;26.40;14.63;;;6.30;99.90;;;;;;4985489;28;20908;-81
2020/12/08 01:22:46;;;;;;;31.33;17.10;;;6.40;99.90;;;;;;4988446;28;20282;-80
2020/12/08 01:25:11;;;;;;;31.23;14.97;;;6.50;99.90;;;;;;4969091;28;20227;-80
2020/12/08 01:27:37;;;;;;;24.97;14.90;;;6.70;99.90;;;;;;4988286;28;20222;-79
2020/12/08 01:30:05;;;;;;;27.17;13.93;;;6.50;99.90;;;;;;4986644;28;20190;-78
2020/12/08 01:32:30;;;;;;;21.70;13.07;;;6.40;99.90;;;;;;4985502;28;20214;-80
2020/12/08 01:34:56;;;;;;;27.43;14.10;;;6.40;99.90;;;;;;4970352;28;20195;-80
2020/12/08 01:37:22;;;;;;;29.83;15.30;;;6.40;99.90;;;;;;4985611;28;20662;-81
2020/12/08 01:39:47;;;;;;;24.30;13.27;;;6.60;99.90;;;;;;4954353;28;20214;-80
2020/12/08 01:42:13;;;;;;;26.43;14.47;;;6.50;99.90;;;;;;4983774;28;20671;-79
2020/12/08 01:44:44;;;;;;;24.00;14.73;;;6.60;99.90;;;;;;4986256;28;20205;-81
2020/12/08 01:47:11;;;;;;;25.45;16.23;;;6.80;99.90;;;;;;4986857;28;20171;-80
2020/12/08 01:49:37;;;;;;;27.70;14.77;;;6.70;99.90;;;;;;4988918;28;20179;-79
2020/12/08 01:52:03;;;;;;;41.90;15.80;;;6.80;99.90;;;;;;4965705;28;20211;-80
2020/12/08 01:54:29;;;;;;;26.52;16.60;;;6.70;99.90;;;;;;4983465;28;20415;-80
2020/12/08 01:56:54;;;;;;;27.80;13.87;;;6.70;99.90;;;;;;4971132;28;20176;-81
2020/12/08 01:59:20;;;;;;;29.07;14.60;;;6.80;99.90;;;;;;4970575;28;20252;-80
2020/12/08 02:01:48;;;;;;;25.07;13.77;;;6.70;99.90;;;;;;4969797;28;20188;-80
2020/12/08 02:04:13;;;;;;;28.23;16.13;;;6.50;99.90;;;;;;4983876;28;20754;-81
2020/12/08 02:06:39;;;;;;;26.87;15.10;;;6.40;99.90;;;;;;4986841;28;20190;-80
2020/12/08 02:09:05;;;;;;;31.15;16.30;;;6.30;99.90;;;;;;4970897;28;20193;-81
2020/12/08 02:11:31;;;;;;;29.70;14.40;;;6.40;99.90;;;;;;4986188;28;20238;-81
2020/12/08 02:13:56;;;;;;;26.10;14.53;;;6.60;99.90;;;;;;4986189;28;20655;-81
2020/12/08 02:16:22;;;;;;;29.60;15.10;;;6.70;99.90;;;;;;4985445;28;20203;-80
2020/12/08 02:18:48;;;;;;;43.53;17.50;;;6.80;99.90;;;;;;4984912;28;20179;-81
2020/12/08 02:21:14;;;;;;;29.63;15.47;;;6.60;99.90;;;;;;4987831;28;20193;-80
2020/12/08 02:23:49;;;;;;;31.67;16.42;;;6.70;99.90;;;;;;4984889;28;20184;-80
2020/12/08 02:26:15;;;;;;;29.25;16.02;;;6.90;99.90;;;;;;4985135;28;20270;-80
2020/12/08 02:28:41;;;;;;;25.60;15.87;;;6.50;99.90;;;;;;4984799;28;20202;-80
2020/12/08 02:31:06;;;;;;;34.40;18.37;;;6.30;99.90;;;;;;4985329;28;20191;-80
2020/12/08 02:33:32;;;;;;;30.93;18.10;;;6.40;99.90;;;;;;4981189;28;20187;-79
2020/12/08 02:35:57;;;;;;;31.83;16.13;;;6.20;99.90;;;;;;4981527;28;20219;-79
2020/12/08 02:38:24;;;;;;;31.63;17.60;;;6.10;99.90;;;;;;4980310;28;20682;-79
2020/12/08 02:40:53;;;;;;;28.63;13.55;;;6.10;99.90;;;;;;4980497;28;20171;-80
2020/12/08 02:43:21;;;;;;;33.40;15.60;;;6.10;99.90;;;;;;4980947;28;20179;-79
2020/12/08 02:45:46;;;;;;;29.02;14.93;;;6.30;99.90;;;;;;4977771;28;20195;-79
2020/12/08 02:48:12;;;;;;;26.97;16.83;;;6.30;99.90;;;;;;4976613;28;20372;-79
2020/12/08 02:50:38;;;;;;;29.50;15.17;;;6.20;99.90;;;;;;4985172;28;20179;-79
2020/12/08 02:53:03;;;;;;;31.60;15.23;;;6.00;99.90;;;;;;4993964;28;20270;-80
2020/12/08 02:55:29;;;;;;;31.20;15.17;;;6.20;99.90;;;;;;4995263;28;20191;-80
2020/12/08 02:57:55;;;;;;;39.53;16.43;;;6.40;99.90;;;;;;4975869;28;20180;-79
2020/12/08 03:00:20;;;;;;;34.03;15.77;;;6.50;99.90;;;;;;4997746;28;20183;-79
2020/12/08 03:02:46;;;;;;;27.87;15.93;;;6.30;99.90;;;;;;4991875;28;20186;-80
2020/12/08 03:05:11;;;;;;;34.63;17.03;;;6.20;99.90;;;;;;4985541;28;20269;-80
2020/12/08 03:07:40;;;;;;;34.53;15.20;;;6.10;99.90;;;;;;4981393;28;20176;-79
2020/12/08 03:10:07;;;;;;;29.58;16.30;;;6.00;99.90;;;;;;4982121;28;20190;-80
2020/12/08 03:12:33;;;;;;;32.83;16.48;;;5.90;99.90;;;;;;4984808;28;20207;-80
2020/12/08 03:14:59;;;;;;;32.95;16.58;;;6.20;99.90;;;;;;4983457;28;20196;-81
2020/12/08 03:17:24;;;;;;;29.87;15.93;;;6.40;99.90;;;;;;4984007;28;20202;-80
2020/12/08 03:19:50;;;;;;;28.80;16.57;;;6.50;99.90;;;;;;4983762;28;20172;-80
2020/12/08 03:22:16;;;;;;;33.65;15.90;;;6.60;99.90;;;;;;4983826;28;20182;-80
2020/12/08 03:24:42;;;;;;;33.47;17.20;;;6.60;99.90;;;;;;4982486;28;20215;-79
2020/12/08 03:27:07;;;;;;;31.60;16.57;;;6.70;99.90;;;;;;4984153;28;20214;-79
2020/12/08 03:29:33;;;;;;;31.00;18.17;;;6.60;99.90;;;;;;4984069;28;20176;-80
2020/12/08 03:31:59;;;;;;;36.93;17.27;;;6.70;99.90;;;;;;4983808;28;20283;-80
2020/12/08 03:34:25;;;;;;;28.30;15.53;;;6.70;99.90;;;;;;4982891;28;20183;-80
2020/12/08 03:36:51;;;;;;;28.17;15.85;;;6.60;99.90;;;;;;4966098;28;20510;-80
2020/12/08 03:39:17;;;;;;;28.23;15.73;;;6.80;99.90;;;;;;4983434;28;20210;-80
2020/12/08 03:41:43;;;;;;;27.73;16.38;;;6.80;99.90;;;;;;4983283;28;20172;-80
2020/12/08 03:44:10;;;;;;;26.00;14.15;;;6.60;99.90;;;;;;4983398;28;20658;-80
2020/12/08 03:46:36;;;;;;;33.15;17.20;;;6.70;99.90;;;;;;4983179;28;20290;-81
2020/12/08 03:49:02;;;;;;;35.83;16.42;;;6.60;99.90;;;;;;4982858;28;20171;-80
2020/12/08 03:51:28;;;;;;;32.95;17.27;;;6.60;99.90;;;;;;4982136;28;20213;-80
2020/12/08 03:53:54;;;;;;;28.57;15.63;;;6.60;99.90;;;;;;4966059;28;20647;-79
2020/12/08 03:56:20;;;;;;;30.73;15.63;;;6.60;99.90;;;;;;4982327;28;20192;-79
2020/12/08 03:58:46;;;;;;;31.73;16.60;;;6.70;99.90;;;;;;4978467;28;20172;-79
2020/12/08 04:01:15;;;;;;;30.83;16.95;;;6.80;99.90;;;;;;4980178;28;20957;-80
2020/12/08 04:03:45;;;;;;;33.05;17.25;;;6.70;99.90;;;;;;4980554;28;20187;-79
2020/12/08 04:06:12;;;;;;;31.67;16.58;;;6.70;99.90;;;;;;4963333;28;20698;-80
2020/12/08 04:08:42;;;;;;;39.00;18.77;;;6.70;99.90;;;;;;4979898;28;20171;-79
2020/12/08 04:11:12;;;;;;;29.88;16.55;;;6.80;99.90;;;;;;4979090;28;20199;-79
2020/12/08 04:13:37;;;;;;;27.88;16.00;;;6.70;99.90;;;;;;4964086;28;20180;-80
2020/12/08 04:16:03;;;;;;;32.63;18.53;;;6.70;99.90;;;;;;4979025;28;20202;-80
2020/12/08 04:18:29;;;;;;;35.13;18.43;;;6.50;99.90;;;;;;4978119;28;20167;-79
2020/12/08 04:20:55;;;;;;;30.50;15.87;;;6.60;99.90;;;;;;4978021;28;20203;-79
2020/12/08 04:23:23;;;;;;;35.57;18.13;;;6.40;99.90;;;;;;4978669;28;20403;-80
2020/12/08 04:25:49;;;;;;;33.25;17.60;;;6.50;99.90;;;;;;4977633;28;20187;-79
2020/12/08 04:28:15;;;;;;;39.15;16.77;;;6.60;99.90;;;;;;4976865;28;20199;-80
2020/12/08 04:30:41;;;;;;;29.83;17.08;;;6.80;99.90;;;;;;4977121;28;20539;-80
2020/12/08 04:33:07;;;;;;;38.73;16.67;;;6.70;99.90;;;;;;4976508;28;20207;-80
2020/12/08 04:35:32;;;;;;;26.00;15.80;;;6.70;99.90;;;;;;4976709;28;20195;-80
2020/12/08 04:37:58;;;;;;;31.03;15.87;;;6.70;99.90;;;;;;4977796;28;20534;-81
2020/12/08 04:40:25;;;;;;;32.73;16.93;;;6.70;99.90;;;;;;4977332;28;20175;-80
2020/12/08 04:42:55;;;;;;;29.00;14.98;;;6.80;99.90;;;;;;4960551;28;20180;-80
2020/12/08 04:45:22;;;;;;;33.35;17.08;;;6.70;99.90;;;;;;4962147;28;20199;-80
2020/12/08 04:47:50;;;;;;;37.42;17.83;;;6.70;99.90;;;;;;4977058;28;20187;-80
2020/12/08 04:50:18;;;;;;;30.40;16.73;;;6.80;99.90;;;;;;4994990;28;20172;-81
2020/12/08 04:52:44;;;;;;;28.55;17.60;;;6.70;99.90;;;;;;4982730;28;20235;-78
2020/12/08 04:55:11;;;;;;;32.90;16.45;;;6.70;99.90;;;;;;4980344;28;20203;-80
2020/12/08 04:57:39;;;;;;;29.88;16.05;;;6.80;99.90;;;;;;4980612;28;20179;-80
2020/12/08 05:00:10;;;;;;;29.42;16.77;;;6.80;99.90;;;;;;4966541;28;20178;-79
2020/12/08 05:02:54;;;;;;;28.25;15.85;;;6.80;99.90;;;;;;4981085;28;20172;-80
2020/12/08 05:05:24;;;;;;;28.65;17.05;;;6.80;99.90;;;;;;4980511;28;20528;-80
2020/12/08 05:07:50;;;;;;;36.17;17.80;;;6.70;99.90;;;;;;4978144;28;20168;-80
2020/12/08 05:10:27;;;;;;;30.50;18.13;;;6.80;99.90;;;;;;4962667;28;20189;-79
2020/12/08 05:12:54;;;;;;;31.92;16.42;;;6.70;99.90;;;;;;4979501;28;20462;-81
2020/12/08 05:15:20;;;;;;;39.50;18.05;;;6.70;99.90;;;;;;4978100;28;20214;-78
2020/12/08 05:17:46;;;;;;;34.60;17.20;;;6.50;99.90;;;;;;4977739;28;20175;-79
2020/12/08 05:20:13;;;;;;;30.73;16.37;;;6.50;99.90;;;;;;4977968;28;20175;-79
2020/12/08 05:22:55;;;;;;;29.73;16.20;;;6.50;99.90;;;;;;4977318;28;20183;-80
2020/12/08 05:25:21;;;;;;;28.67;17.35;;;6.70;99.90;;;;;;4977626;28;20563;-79
2020/12/08 05:27:51;;;;;;;32.75;17.10;;;6.60;99.90;;;;;;4979082;28;20247;-79
2020/12/08 05:30:17;;;;;;;37.65;17.20;;;6.60;99.90;;;;;;4976751;28;20175;-79
2020/12/08 05:32:43;;;;;;;31.40;16.88;;;6.50;99.90;;;;;;4978638;28;20235;-79
2020/12/08 05:35:14;;;;;;;38.00;19.88;;;6.60;99.90;;;;;;4978648;28;20246;-81
2020/12/08 05:37:42;;;;;;;26.10;16.48;;;6.60;99.90;;;;;;4976076;28;20554;-79
2020/12/08 05:40:13;;;;;;;28.15;16.45;;;6.70;99.90;;;;;;4977087;28;20175;-78
2020/12/08 05:42:41;;;;;;;32.50;16.48;;;6.60;99.90;;;;;;4978100;28;20188;-79
2020/12/08 05:45:09;;;;;;;35.50;17.60;;;6.70;99.90;;;;;;4982955;28;20194;-79
2020/12/08 05:47:50;;;;;;;36.20;17.40;;;6.70;99.90;;;;;;4980973;28;20176;-81
2020/12/08 05:50:18;;;;;;;30.55;16.30;;;6.70;99.90;;;;;;4982986;28;20175;-80
2020/12/08 05:52:52;;;;;;;36.33;16.63;;;6.60;99.90;;;;;;4985333;28;20234;-79
2020/12/08 05:55:20;;;;;;;35.40;16.83;;;6.60;99.90;;;;;;4983269;28;20199;-81
2020/12/08 05:57:47;;;;;;;34.25;16.67;;;6.70;99.90;;;;;;4983155;28;20164;-80
2020/12/08 06:00:26;;;;;;;35.85;17.02;;;6.60;99.90;;;;;;4985617;28;20174;-80
2020/12/08 06:02:53;;;;;;;40.17;17.50;;;6.60;99.90;;;;;;4985918;28;20191;-80
2020/12/08 06:05:30;;;;;;;35.20;18.10;;;6.60;99.90;;;;;;4987710;28;20199;-80
2020/12/08 06:07:56;;;;;;;40.90;19.38;;;6.60;99.90;;;;;;4984963;28;20171;-80
2020/12/08 06:10:23;;;;;;;34.05;17.67;;;6.70;99.90;;;;;;4987703;28;20639;-81
2020/12/08 06:12:57;;;;;;;34.00;17.92;;;6.70;99.90;;;;;;4984734;28;20234;-80
2020/12/08 06:15:27;;;;;;;33.63;17.95;;;6.80;99.90;;;;;;4986529;28;20201;-80
2020/12/08 06:17:53;;;;;;;32.33;18.13;;;6.90;99.90;;;;;;4985690;28;20187;-80
2020/12/08 06:20:19;;;;;;;31.67;16.67;;;6.80;99.90;;;;;;4985195;28;20520;-81
2020/12/08 06:22:58;;;;;;;34.13;16.13;;;6.80;99.90;;;;;;4968219;28;20211;-80
2020/12/08 06:25:25;;;;;;;29.40;16.83;;;6.80;99.90;;;;;;4983553;28;20195;-80
2020/12/08 06:27:51;;;;;;;33.83;17.05;;;6.90;99.90;;;;;;4982278;28;20790;-81
2020/12/08 06:30:21;;;;;;;27.92;16.73;;;7.00;99.90;;;;;;4948192;29;20212;-81
2020/12/08 06:32:49;;;;;;;31.83;15.95;;;6.90;99.90;;;;;;4973638;28;20231;-81
2020/12/08 06:35:17;;;;;;;34.17;19.23;;;6.70;99.90;;;;;;4981287;28;20195;-81
2020/12/08 06:37:53;;;;;;;33.10;17.83;;;6.70;99.90;;;;;;4982060;28;20253;-81
2020/12/08 06:40:24;;;;;;;30.75;16.90;;;6.50;99.90;;;;;;4981684;28;20179;-83
2020/12/08 06:42:53;;;;;;;38.38;18.17;;;6.50;99.90;;;;;;4978626;28;20247;-85
2020/12/08 06:45:25;;;;;;;36.95;16.63;;;6.50;99.90;;;;;;4963925;28;20210;-86
2020/12/08 06:47:52;;;;;;;33.45;16.23;;;6.60;99.90;;;;;;4961014;29;20266;-86
2020/12/08 06:50:25;;;;;;;31.73;16.88;;;6.50;99.90;;;;;;4969718;28;20211;-85
2020/12/08 06:53:00;;;;;;;33.53;16.08;;;6.40;99.90;;;;;;4980411;28;20191;-85
2020/12/08 06:55:27;;;;;;;27.70;16.27;;;6.60;99.90;;;;;;4977208;28;20201;-86
2020/12/08 06:57:53;;;;;;;35.35;17.63;;;6.70;99.90;;;;;;4979648;28;20174;-83
2020/12/08 07:00:25;;;;;;;31.95;16.90;;;6.70;99.90;;;;;;4981312;28;20305;-84
2020/12/08 07:02:52;;;;;;;31.90;16.88;;;6.60;99.90;;;;;;4979865;28;20183;-82
2020/12/08 07:05:28;;;;;;;26.30;15.63;;;6.60;99.90;;;;;;4980565;28;20203;-84
2020/12/08 07:07:57;;;;;;;35.08;16.50;;;6.70;99.90;;;;;;4983874;28;20647;-85
2020/12/08 07:10:24;;;;;;;36.40;17.17;;;6.70;99.90;;;;;;4981866;28;20189;-85
2020/12/08 07:12:51;;;;;;;30.25;17.10;;;6.50;99.90;;;;;;4963742;28;20195;-86
2020/12/08 07:15:23;;;;;;;32.17;16.60;;;6.60;99.90;;;;;;4981096;28;20198;-86
2020/12/08 07:17:59;;;;;;;38.42;18.05;;;6.40;99.90;;;;;;4979397;28;20183;-82
2020/12/08 07:20:25;;;;;;;31.73;16.10;;;6.50;99.90;;;;;;4949864;28;20179;-84
2020/12/08 07:22:52;;;;;;;30.38;16.42;;;6.50;99.90;;;;;;4984407;28;20180;-84
2020/12/08 07:25:19;;;;;;;32.95;17.48;;;6.60;99.90;;;;;;4983459;28;20686;-83
2020/12/08 07:27:53;;;;;;;30.35;16.38;;;6.60;99.90;;;;;;4965114;28;20203;-84
2020/12/08 07:30:24;;;;;;;32.22;16.67;;;6.60;99.90;;;;;;4980070;28;20183;-84
2020/12/08 07:32:51;;;;;;;29.60;16.17;;;6.70;99.90;;;;;;4981401;28;20207;-84
2020/12/08 07:35:49;;;;;;;39.22;16.92;;;6.60;99.90;;;;;;4981389;28;20184;-85
2020/12/08 07:38:15;;;;;;;33.97;17.50;;;6.70;99.90;;;;;;4946313;28;20184;-85
2020/12/08 07:40:42;;;;;;;42.30;17.77;;;6.70;99.90;;;;;;4940937;29;20271;-85
2020/12/08 07:43:08;;;;;;;29.73;15.82;;;6.60;99.90;;;;;;4960621;28;20180;-84
2020/12/08 07:45:41;;;;;;;31.30;15.73;;;6.60;99.90;;;;;;4976694;28;20239;-81
2020/12/08 07:48:11;;;;;;;33.75;15.88;;;6.80;99.90;;;;;;4982819;28;20451;-80
2020/12/08 07:50:41;;;;;;;30.88;17.58;;;6.80;99.90;;;;;;4963810;28;20183;-82
2020/12/08 07:56:35;;;;;;;36.70;17.08;;;7.10;99.90;;;;;;4978217;28;20278;-81
2020/12/08 07:59:02;;;;;;;32.60;17.05;;;6.90;99.90;;;;;;4986211;28;20187;-80
2020/12/08 08:01:28;;;;;;;30.40;15.57;;;6.50;99.90;;;;;;4982911;28;20175;-81
2020/12/08 08:03:54;;;;;;;31.85;15.20;;;6.60;99.90;;;;;;4997556;28;20666;-79
2020/12/08 08:06:22;;;;;;;33.93;18.07;;;6.80;99.90;;;;;;4979050;28;20242;-80
2020/12/08 08:08:49;;;;;;;28.35;16.75;;;6.80;99.90;;;;;;4978594;28;20442;-80
2020/12/08 08:11:15;;;;;;;30.13;15.88;;;6.80;99.90;;;;;;4978374;28;20302;-83
2020/12/08 08:13:42;;;;;;;34.55;16.23;;;6.80;99.90;;;;;;4985718;28;20237;-82
2020/12/08 08:16:14;;;;;;;32.83;18.30;;;6.80;99.90;;;;;;4988938;28;20226;-83
2020/12/08 08:18:40;;;;;;;37.55;17.05;;;6.80;99.90;;;;;;4979412;28;20194;-83
2020/12/08 08:21:07;;;;;;;35.85;17.70;;;6.60;99.90;;;;;;4980682;28;20229;-82
2020/12/08 08:23:33;;;;;;;32.28;17.38;;;6.70;99.90;;;;;;4972913;28;20235;-82
2020/12/08 08:25:59;;;;;;;29.00;18.25;;;6.90;99.90;;;;;;4978145;28;20660;-83
2020/12/08 08:28:25;;;;;;;28.57;16.13;;;6.80;99.90;;;;;;4961936;28;20196;-85
2020/12/08 08:30:51;;;;;;;33.25;16.27;;;6.90;99.90;;;;;;4977620;28;20167;-86
2020/12/08 08:33:17;;;;;;;37.70;17.67;;;6.80;99.90;;;;;;4977791;28;20211;-87
2020/12/08 08:35:43;;;;;;;26.90;15.80;;;6.90;99.90;;;;;;4980819;28;20242;-86
2020/12/08 08:38:09;;;;;;;28.23;14.93;;;6.70;99.90;;;;;;4982739;28;20176;-85
2020/12/08 08:40:34;;;;;;;32.77;17.00;;;6.70;99.90;;;;;;4965275;28;20179;-87
2020/12/08 08:43:01;;;;;;;29.40;16.97;;;6.80;99.90;;;;;;4953765;29;20208;-86
2020/12/08 08:45:26;;;;;;;34.10;18.80;;;6.70;99.90;;;;;;4963502;28;20227;-87
2020/12/08 08:47:52;;;;;;;33.27;16.20;;;6.60;99.90;;;;;;4975035;28;20254;-85
2020/12/08 08:50:18;;;;;;;28.40;15.60;;;6.60;99.90;;;;;;4984255;28;20430;-86
2020/12/08 08:52:44;;;;;;;37.47;16.90;;;6.50;99.90;;;;;;4980839;28;20455;-83
2020/12/08 08:55:10;;;;;;;33.17;17.33;;;6.60;99.90;;;;;;4981120;28;20529;-83
2020/12/08 08:57:40;;;;;;;29.25;15.55;;;6.50;99.90;;;;;;4981276;28;20210;-84
2020/12/08 09:00:12;;;;;;;33.05;17.88;;;6.60;99.90;;;;;;4981879;28;20180;-83
2020/12/08 09:02:38;;;;;;;35.70;16.05;;;6.60;99.90;;;;;;4979592;28;20175;-83
2020/12/08 09:05:05;;;;;;;32.60;17.48;;;6.60;99.90;;;;;;4981491;28;20265;-83
2020/12/08 09:07:31;;;;;;;30.23;14.73;;;6.60;99.90;;;;;;4980907;28;20235;-83
2020/12/08 09:09:57;;;;;;;38.97;16.47;;;6.60;99.90;;;;;;4981095;28;20179;-83
2020/12/08 09:12:23;;;;;;;36.95;17.40;;;6.60;99.90;;;;;;4963672;28;20298;-82
2020/12/08 09:14:51;;;;;;;28.85;16.63;;;6.40;99.90;;;;;;4981428;28;20219;-83
2020/12/08 09:17:17;;;;;;;34.78;17.85;;;6.50;99.90;;;;;;4982730;28;20228;-84
2020/12/08 09:19:43;;;;;;;30.87;16.93;;;6.50;99.90;;;;;;4966127;28;20539;-83
2020/12/08 09:22:09;;;;;;;30.05;15.25;;;6.40;99.90;;;;;;4977237;28;20219;-84
2020/12/08 09:24:35;;;;;;;33.43;17.37;;;6.40;99.90;;;;;;4967872;28;20203;-82
2020/12/08 09:27:03;;;;;;;35.90;17.30;;;6.40;99.90;;;;;;4963001;28;20954;-83
2020/12/08 09:29:29;;;;;;;33.83;16.92;;;6.60;99.90;;;;;;4962551;29;20196;-85
2020/12/08 09:31:56;;;;;;;30.90;16.80;;;6.60;99.90;;;;;;4964509;28;20642;-83
2020/12/08 09:34:25;;;;;;;27.23;15.73;;;6.60;99.90;;;;;;4991837;28;20327;-83
2020/12/08 09:36:52;;;;;;;32.65;16.15;;;6.60;99.90;;;;;;4999479;28;20171;-83
2020/12/08 09:39:18;;;;;;;34.55;16.65;;;6.60;99.90;;;;;;4997791;28;20234;-84
2020/12/08 09:41:44;;;;;;;30.60;16.17;;;6.60;99.90;;;;;;4977317;28;20462;-82
2020/12/08 09:44:10;;;;;;;32.27;17.40;;;6.50;99.90;;;;;;4979452;28;20479;-84
2020/12/08 09:46:43;;;;;;;34.58;17.95;;;6.60;99.90;;;;;;4987296;28;20522;-83
2020/12/08 09:49:11;;;;;;;34.17;18.60;;;6.50;99.90;;;;;;4986621;28;20182;-84
2020/12/08 09:51:37;;;;;;;29.17;16.50;;;6.50;99.90;;;;;;4987077;28;20203;-84
2020/12/08 09:54:04;;;;;;;36.80;18.23;;;6.60;99.90;;;;;;4987883;28;20187;-83
2020/12/08 09:56:30;;;;;;;35.70;16.58;;;6.80;99.90;;;;;;4986506;28;20196;-83
2020/12/08 09:58:56;;;;;;;33.47;16.37;;;6.70;99.90;;;;;;4987330;28;20210;-83
2020/12/08 10:01:30;;;;;;;32.37;16.50;;;6.80;99.90;;;;;;4986940;28;20194;-84
2020/12/08 10:03:56;;;;;;;40.50;19.20;;;6.80;99.90;;;;;;4987862;28;20196;-85
2020/12/08 10:06:22;;;;;;;38.28;19.98;;;6.80;99.90;;;;;;4971437;28;20203;-85
2020/12/08 10:08:48;;;;;;;36.17;17.70;;;6.90;99.90;;;;;;4988485;28;20179;-84
2020/12/08 10:11:16;;;;;;;34.03;15.88;;;7.00;99.90;;;;;;4983831;28;20427;-84
2020/12/08 10:13:42;;;;;;;35.22;18.90;;;7.10;99.90;;;;;;4987227;28;20175;-85
2020/12/08 10:16:09;;;;;;;32.95;17.02;;;7.10;99.90;;;;;;4987089;28;20194;-84
2020/12/08 10:18:35;;;;;;;30.92;17.45;;;7.10;99.90;;;;;;4989408;28;20186;-84
2020/12/08 10:21:02;;;;;;;32.80;16.92;;;7.00;99.90;;;;;;4968697;29;20180;-84
2020/12/08 10:23:27;;;;;;;31.27;17.25;;;7.00;99.90;;;;;;4979084;28;20233;-84
2020/12/08 10:25:53;;;;;;;32.30;17.53;;;6.90;99.90;;;;;;4985495;28;20223;-84
2020/12/08 10:28:19;;;;;;;37.80;18.30;;;6.90;99.90;;;;;;4984769;28;20191;-85
2020/12/08 10:30:45;;;;;;;34.17;17.90;;;6.90;99.90;;;;;;4985346;28;20426;-84
2020/12/08 10:33:10;;;;;;;32.37;17.40;;;7.10;99.90;;;;;;4983221;28;20223;-84
2020/12/08 10:35:36;;;;;;;36.80;17.07;;;7.10;99.90;;;;;;4985929;28;20279;-86
2020/12/08 10:38:02;;;;;;;32.13;17.40;;;7.20;99.90;;;;;;4968646;28;20336;-85
2020/12/08 10:40:28;;;;;;;35.57;16.87;;;7.10;99.90;;;;;;4986023;28;20434;-84
2020/12/08 10:42:54;;;;;;;30.20;17.83;;;7.20;99.90;;;;;;4987063;28;20529;-85
2020/12/08 10:45:19;;;;;;;26.20;15.20;;;7.30;99.90;;;;;;4984625;28;20270;-86
2020/12/08 10:47:45;;;;;;;35.83;18.13;;;7.30;99.90;;;;;;4987038;28;20191;-85
2020/12/08 10:50:12;;;;;;;30.70;15.37;;;7.40;99.90;;;;;;4986579;28;20175;-85
2020/12/08 10:52:37;;;;;;;31.85;16.23;;;7.40;99.90;;;;;;4985793;28;20207;-84
2020/12/08 10:55:03;;;;;;;43.23;17.60;;;7.50;99.90;;;;;;4986650;28;20231;-84
2020/12/08 10:57:29;;;;;;;29.40;16.03;;;7.50;99.90;;;;;;4986798;28;20198;-84
2020/12/08 10:59:54;;;;;;;29.00;17.47;;;7.50;99.90;;;;;;4987574;28;20402;-85
2020/12/08 11:02:20;;;;;;;30.37;17.13;;;7.50;99.90;;;;;;4984054;28;20183;-84
2020/12/08 11:04:46;;;;;;;27.67;15.83;;;7.50;99.90;;;;;;4985666;28;20219;-85
2020/12/08 11:07:12;;;;;;;28.67;14.57;;;7.60;99.90;;;;;;4984467;28;20203;-84
2020/12/08 11:09:37;;;;;;;34.17;17.13;;;7.60;99.90;;;;;;4984330;28;20423;-85
2020/12/08 11:12:03;;;;;;;27.50;16.50;;;7.60;99.90;;;;;;4987286;28;20191;-84
2020/12/08 11:14:29;;;;;;;26.23;13.77;;;7.60;99.90;;;;;;4986214;28;20168;-83
2020/12/08 11:16:57;;;;;;;28.40;16.40;;;7.60;99.90;;;;;;4984875;28;20180;-85
2020/12/08 11:19:23;;;;;;;28.70;15.05;;;7.60;99.90;;;;;;4965515;28;20176;-84
2020/12/08 11:22:00;;;;;;;29.50;16.17;;;7.50;99.90;;;;;;4978945;28;20187;-86
2020/12/08 11:24:26;;;;;;;29.73;16.38;;;7.60;99.90;;;;;;4988427;28;20210;-84
2020/12/08 11:26:52;;;;;;;32.93;16.67;;;7.60;99.90;;;;;;4982859;28;20207;-84
2020/12/08 11:29:17;;;;;;;28.87;16.67;;;7.60;99.90;;;;;;4983869;28;20191;-85
2020/12/08 11:31:43;;;;;;;31.83;16.73;;;7.70;99.90;;;;;;4983684;28;20361;-85
2020/12/08 11:34:09;;;;;;;29.77;15.80;;;7.70;99.90;;;;;;4984320;28;20188;-85
2020/12/08 11:36:35;;;;;;;24.98;15.00;;;7.70;99.90;;;;;;4981615;28;20282;-85
2020/12/08 11:39:01;;;;;;;26.57;15.33;;;7.70;99.90;;;;;;4979688;28;20234;-84
2020/12/08 11:41:26;;;;;;;37.00;16.97;;;7.70;99.90;;;;;;4981382;28;20190;-83
2020/12/08 11:43:52;;;;;;;31.53;15.27;;;7.70;99.90;;;;;;4979914;28;20270;-84
2020/12/08 11:46:18;;;;;;;31.93;16.63;;;7.60;99.90;;;;;;4979655;28;20238;-84
2020/12/08 11:48:44;;;;;;;27.50;15.77;;;7.50;99.90;;;;;;4992316;28;20171;-83
2020/12/08 11:51:12;;;;;;;27.50;15.27;;;7.60;99.90;;;;;;4994057;28;20188;-84
2020/12/08 11:53:40;;;;;;;30.20;18.42;;;7.50;99.90;;;;;;4972387;28;20188;-83
2020/12/08 11:56:06;;;;;;;31.13;16.05;;;7.60;99.90;;;;;;4963348;29;20192;-84
2020/12/08 11:58:31;;;;;;;31.67;16.60;;;7.70;99.90;;;;;;4949542;29;20558;-85
2020/12/08 12:00:57;;;;;;;31.10;15.50;;;7.70;99.90;;;;;;4946766;29;20183;-85
2020/12/08 12:03:23;;;;;;;32.33;16.10;;;7.70;99.90;;;;;;4965096;28;20191;-84
2020/12/08 12:05:52;;;;;;;32.40;17.25;;;7.70;99.90;;;;;;4964058;28;20203;-84
2020/12/08 12:08:28;;;;;;;28.77;16.60;;;7.70;99.90;;;;;;4974939;28;20242;-86
2020/12/08 12:10:54;;;;;;;31.42;16.70;;;7.70;99.90;;;;;;4986077;28;20202;-86
2020/12/08 12:13:20;;;;;;;26.57;16.13;;;7.70;99.90;;;;;;4982368;28;20283;-84
2020/12/08 12:15:45;;;;;;;25.83;15.10;;;7.70;99.90;;;;;;4982400;28;20215;-83
2020/12/08 12:18:14;;;;;;;29.57;17.10;;;7.70;99.90;;;;;;4980476;28;20175;-86
2020/12/08 12:20:42;;;;;;;29.08;15.40;;;7.80;99.90;;;;;;4946172;29;20184;-86
2020/12/08 12:23:08;;;;;;;31.38;16.73;;;7.80;99.90;;;;;;4980115;28;20206;-83
2020/12/08 12:25:33;;;;;;;24.83;15.00;;;7.60;99.90;;;;;;4981323;28;20199;-84
2020/12/08 12:27:59;;;;;;;29.63;15.00;;;7.50;99.90;;;;;;4969514;28;20183;-83
2020/12/08 12:30:28;;;;;;;30.17;15.53;;;7.50;99.90;;;;;;4947651;28;20186;-84
2020/12/08 12:32:53;;;;;;;26.65;16.08;;;7.60;99.90;;;;;;4964014;28;20467;-84
2020/12/08 12:35:19;;;;;;;32.33;17.10;;;7.70;99.90;;;;;;4960261;29;20207;-84
2020/12/08 12:37:45;;;;;;;32.10;16.13;;;7.60;99.90;;;;;;4976700;28;20665;-83
2020/12/08 12:40:13;;;;;;;31.13;16.03;;;7.60;99.90;;;;;;4960522;29;20191;-84